Time;durP1;ratioP1;P1;durP2;ratioP2;P2;SDS_P1;SDS_P2;PMS_P1;PMS_P2;Temp;Humidity;BMP_temperature;BMP_pressure;BME280_temperature;BME280_humidity;BME280_pressure;Samples;Min_cycle;Max_cycle;Signal;HPM_P1;HPM_P2
2023/01/15 00:02:08;;;;;;;0.70;0.70;;;;;;;-4.08;88.65;99920.84;5068762;28;20075;-81
2023/01/15 00:04:35;;;;;;;0.80;0.80;;;;;;;-4.07;88.73;99924.34;5066263;28;20492;-81
2023/01/15 00:07:03;;;;;;;0.90;0.90;;;;;;;-4.04;88.73;99921.44;5036143;28;20472;-81
2023/01/15 00:09:30;;;;;;;0.70;0.70;;;;;;;-4.05;88.78;99917.97;5070979;28;20449;-79
2023/01/15 00:11:57;;;;;;;0.80;0.80;;;;;;;-4.04;88.56;99919.63;5052930;28;20056;-81
2023/01/15 00:14:24;;;;;;;0.80;0.80;;;;;;;-4.05;88.67;99915.34;5070699;28;20051;-82
2023/01/15 00:16:52;;;;;;;0.60;0.60;;;;;;;-4.12;88.56;99900.16;5070422;28;20072;-81
2023/01/15 00:19:19;;;;;;;0.70;0.70;;;;;;;-4.06;88.83;99918.91;5036261;28;20052;-81
2023/01/15 00:21:46;;;;;;;0.80;0.80;;;;;;;-4.03;88.75;99913.38;5052647;28;20511;-82
2023/01/15 00:29:54;;;;;;;1.02;1.02;;;;;;;-4.06;88.53;99907.53;5028124;28;20060;-81
2023/01/15 00:32:21;;;;;;;0.80;0.80;;;;;;;-4.06;88.64;99903.09;5027706;28;20056;-81
2023/01/15 00:34:48;;;;;;;0.68;0.68;;;;;;;-4.06;88.51;99903.09;5028020;28;20049;-81
2023/01/15 00:37:15;;;;;;;0.90;0.90;;;;;;;-4.07;88.59;99906.72;5027552;28;20050;-80
2023/01/15 00:39:42;;;;;;;0.80;0.80;;;;;;;-4.05;88.72;99904.78;5027845;28;20041;-81
2023/01/15 00:42:10;;;;;;;1.00;1.00;;;;;;;-4.04;88.66;99911.72;5027456;28;20439;-81
2023/01/15 00:44:38;;;;;;;0.82;0.82;;;;;;;-4.06;88.38;99887.28;5027723;28;20049;-80
2023/01/15 00:47:07;;;;;;;1.00;1.00;;;;;;;-4.07;88.50;99879.50;5027706;28;20069;-82
2023/01/15 00:49:34;;;;;;;0.70;0.70;;;;;;;-4.08;88.75;99883.09;5027728;28;20045;-81
2023/01/15 00:52:01;;;;;;;0.60;0.60;;;;;;;-4.05;88.53;99886.31;5027292;28;20570;-81
2023/01/15 00:54:28;;;;;;;0.80;0.80;;;;;;;-4.05;88.58;99865.22;5027634;28;20518;-81
2023/01/15 00:56:57;;;;;;;0.80;0.80;;;;;;;-4.07;88.62;99872.44;5027717;28;20057;-80
2023/01/15 00:59:24;;;;;;;0.60;0.60;;;;;;;-4.06;88.63;99881.16;5011221;28;20060;-81
2023/01/15 01:01:52;;;;;;;0.65;0.65;;;;;;;-4.05;88.61;99883.69;4994909;28;20617;-81
2023/01/15 01:04:19;;;;;;;0.80;0.80;;;;;;;-4.07;88.60;99863.69;5036932;28;20538;-81
2023/01/15 01:06:46;;;;;;;0.85;0.85;;;;;;;-4.09;88.71;99865.63;5070053;28;20052;-80
2023/01/15 01:09:14;;;;;;;0.88;0.88;;;;;;;-4.08;88.72;99870.75;5052216;28;20485;-80
2023/01/15 01:11:42;;;;;;;0.90;0.90;;;;;;;-4.07;88.79;99887.41;5070655;28;20048;-80
2023/01/15 01:14:10;;;;;;;0.73;0.73;;;;;;;-4.03;88.71;99873.81;5056002;28;20055;-81
2023/01/15 01:16:39;;;;;;;0.80;0.80;;;;;;;-4.05;88.72;99877.56;5074005;28;20051;-82
2023/01/15 01:19:17;;;;;;;0.80;0.80;;;;;;;-4.06;88.73;99860.91;5073810;28;20048;-81
2023/01/15 01:21:45;;;;;;;0.70;0.70;;;;;;;-4.06;88.73;99870.63;5039245;28;20136;-81
2023/01/15 01:24:18;;;;;;;1.00;1.00;;;;;;;-4.07;88.71;99864.53;5073540;28;20053;-81
2023/01/15 01:26:46;;;;;;;0.80;0.80;;;;;;;-4.07;88.75;99874.25;5074092;28;20090;-80
2023/01/15 01:29:20;;;;;;;0.55;0.55;;;;;;;-4.05;88.70;99881.06;5073197;28;20049;-80
2023/01/15 01:31:49;;;;;;;0.63;0.63;;;;;;;-4.05;88.71;99881.06;5039322;28;20076;-81
2023/01/15 01:34:17;;;;;;;0.70;0.70;;;;;;;-4.04;88.68;99869.53;5073121;28;20499;-81
2023/01/15 01:36:45;;;;;;;0.60;0.60;;;;;;;-4.07;88.88;99866.31;5073412;28;20517;-81
2023/01/15 01:39:15;;;;;;;0.80;0.80;;;;;;;-4.03;88.86;99849.25;5073213;28;20418;-81
2023/01/15 01:41:42;;;;;;;0.68;0.68;;;;;;;-4.06;88.65;99860.06;5055250;28;20418;-81
2023/01/15 01:44:31;;;;;;;0.70;0.70;;;;;;;-4.05;88.50;99869.66;5038514;28;20048;-81
2023/01/15 01:47:00;;;;;;;0.55;0.55;;;;;;;-4.07;88.56;99866.31;5055470;28;20056;-81
2023/01/15 01:49:28;;;;;;;0.88;0.88;;;;;;;-4.09;88.70;99876.16;5073360;28;20053;-79
2023/01/15 01:52:02;;;;;;;0.77;0.77;;;;;;;-4.05;88.66;99874.91;5055696;28;20052;-80
2023/01/15 01:54:30;;;;;;;0.68;0.68;;;;;;;-4.07;88.84;99869.78;5055862;28;20083;-81
2023/01/15 01:56:57;;;;;;;0.60;0.60;;;;;;;-4.05;88.74;99867.88;5056025;28;20056;-81
2023/01/15 01:59:25;;;;;;;0.60;0.60;;;;;;;-4.03;88.72;99867.72;5038961;28;20625;-80
2023/01/15 02:01:54;;;;;;;0.80;0.80;;;;;;;-4.05;88.68;99865.22;5055391;28;20056;-81
2023/01/15 02:04:22;;;;;;;0.80;0.80;;;;;;;-4.05;88.63;99865.22;5040966;28;20081;-81
2023/01/15 02:06:50;;;;;;;0.80;0.80;;;;;;;-4.04;88.96;99866.06;5018957;28;20052;-80
2023/01/15 02:09:17;;;;;;;0.90;0.90;;;;;;;-4.01;88.82;99868.44;5051533;28;20515;-80
2023/01/15 02:11:44;;;;;;;0.85;0.85;;;;;;;-4.01;88.75;99874.53;5035291;28;20056;-82
2023/01/15 02:14:20;;;;;;;0.50;0.50;;;;;;;-3.98;89.00;99855.81;5035702;28;20052;-81
2023/01/15 02:17:15;;;;;;;0.90;0.90;;;;;;;-4.03;88.67;99851.91;5012094;28;20503;-81
2023/01/15 02:19:56;;;;;;;0.70;0.70;;;;;;;-4.06;88.80;99855.63;5020793;28;20041;-80
2023/01/15 02:22:52;;;;;;;0.75;0.75;;;;;;;-4.07;88.66;99838.16;5036166;28;20084;-81
2023/01/15 02:25:33;;;;;;;0.70;0.70;;;;;;;-4.11;88.90;99833.25;4937588;29;20059;-82
2023/01/15 02:28:08;;;;;;;0.70;0.70;;;;;;;-4.11;88.85;99852.56;4953182;29;20059;-81
2023/01/15 02:30:42;;;;;;;0.82;0.82;;;;;;;-4.07;88.67;99842.59;4965197;28;20051;-80
2023/01/15 02:33:23;;;;;;;0.85;0.85;;;;;;;-4.09;88.76;99839.25;4974904;28;20054;-82
2023/01/15 02:35:57;;;;;;;0.88;0.88;;;;;;;-4.06;88.80;99855.63;4990875;28;20149;-80
2023/01/15 02:38:27;;;;;;;0.80;0.80;;;;;;;-4.03;88.94;99846.63;4974957;28;20563;-81
2023/01/15 02:40:58;;;;;;;0.80;0.80;;;;;;;-4.04;89.01;99848.44;4958384;28;20050;-82
2023/01/15 02:43:28;;;;;;;0.60;0.60;;;;;;;-4.00;89.05;99860.41;4974404;28;20148;-81
2023/01/15 02:45:57;;;;;;;0.60;0.60;;;;;;;-4.03;88.77;99842.19;4958752;28;20058;-80
2023/01/15 02:48:27;;;;;;;0.88;0.88;;;;;;;-4.04;89.13;99835.25;4974457;28;20114;-81
2023/01/15 02:51:01;;;;;;;0.70;0.70;;;;;;;-4.01;88.81;99842.91;4958402;28;20185;-80
2023/01/15 02:53:29;;;;;;;1.00;1.00;;;;;;;-4.01;88.89;99837.63;4990591;28;20054;-81
2023/01/15 02:56:05;;;;;;;0.80;0.80;;;;;;;-4.05;88.90;99838.88;4955603;28;20059;-80
2023/01/15 02:58:41;;;;;;;0.80;0.80;;;;;;;-4.00;89.09;99846.34;4939900;28;20059;-81
2023/01/15 03:01:14;;;;;;;0.63;0.63;;;;;;;-4.00;88.99;99855.13;4964777;28;20051;-82
2023/01/15 03:03:54;;;;;;;0.80;0.80;;;;;;;-4.00;88.98;99849.00;5037903;28;20135;-81
2023/01/15 03:06:40;;;;;;;0.70;0.70;;;;;;;-3.98;88.70;99855.81;5037353;28;20058;-81
2023/01/15 03:09:08;;;;;;;0.80;0.80;;;;;;;-3.96;88.74;99851.25;5053996;28;20049;-80
2023/01/15 03:11:39;;;;;;;0.70;0.70;;;;;;;-3.96;88.61;99837.22;5037407;28;20086;-80
2023/01/15 03:14:14;;;;;;;0.80;0.80;;;;;;;-3.95;88.77;99847.66;5037385;28;20052;-81
2023/01/15 03:16:46;;;;;;;0.80;0.80;;;;;;;-3.96;88.37;99848.59;5054415;28;20052;-80
2023/01/15 03:19:29;;;;;;;0.80;0.80;;;;;;;-3.94;88.54;99844.03;5053418;28;20044;-81
2023/01/15 03:22:15;;;;;;;0.80;0.80;;;;;;;-3.95;88.61;99865.25;5053595;28;20044;-81
2023/01/15 03:24:51;;;;;;;0.60;0.60;;;;;;;-3.96;88.50;99858.34;5071948;28;20040;-80
2023/01/15 03:27:19;;;;;;;0.80;0.80;;;;;;;-3.98;88.51;99868.16;5053589;28;20056;-80
2023/01/15 03:29:57;;;;;;;0.70;0.70;;;;;;;-3.97;88.65;99862.78;5053552;28;20072;-81
2023/01/15 03:32:25;;;;;;;0.70;0.70;;;;;;;-4.01;88.66;99864.00;5053448;28;20414;-81
2023/01/15 03:34:55;;;;;;;0.82;0.82;;;;;;;-4.00;88.75;99857.75;5053218;28;20049;-82
2023/01/15 03:37:26;;;;;;;0.80;0.80;;;;;;;-4.01;88.95;99858.72;5053266;28;20036;-81
2023/01/15 03:39:55;;;;;;;0.77;0.77;;;;;;;-3.98;88.76;99868.16;5053323;28;20044;-81
2023/01/15 03:46:01;;;;;;;0.80;0.80;;;;;;;-4.03;88.95;99855.38;4993074;28;20059;-80
2023/01/15 03:48:40;;;;;;;0.80;0.80;;;;;;;-4.04;88.93;99851.06;4961166;28;20197;-80
2023/01/15 03:51:12;;;;;;;0.80;0.80;;;;;;;-3.96;88.93;99861.78;4976602;28;20058;-80
2023/01/15 03:53:40;;;;;;;0.90;0.90;;;;;;;-3.96;88.72;99869.72;5008795;28;20160;-81
2023/01/15 03:56:13;;;;;;;0.80;0.80;;;;;;;-3.99;88.81;99869.97;4941297;28;20070;-80
2023/01/15 03:58:47;;;;;;;0.70;0.70;;;;;;;-3.95;89.02;99868.75;4973302;28;20046;-81
2023/01/15 04:01:21;;;;;;;0.70;0.70;;;;;;;-3.96;88.96;99867.06;4972505;28;20054;-81
2023/01/15 04:03:49;;;;;;;0.73;0.73;;;;;;;-4.00;88.70;99849.84;4998360;28;20117;-80
2023/01/15 04:06:20;;;;;;;0.80;0.80;;;;;;;-3.98;88.92;99860.25;4992159;28;20045;-81
2023/01/15 04:08:53;;;;;;;0.88;0.88;;;;;;;-3.98;89.09;99855.81;4976654;28;20067;-81
2023/01/15 04:11:23;;;;;;;0.82;0.82;;;;;;;-3.98;88.99;99852.34;5008207;28;20073;-81
2023/01/15 04:13:54;;;;;;;0.90;0.90;;;;;;;-3.96;88.92;99866.25;4992415;28;20054;-80
2023/01/15 04:16:37;;;;;;;0.80;0.80;;;;;;;-3.96;88.73;99861.78;5016000;28;20144;-80
2023/01/15 04:19:04;;;;;;;0.90;0.90;;;;;;;-3.98;88.98;99866.34;5056002;28;20110;-81
2023/01/15 04:21:34;;;;;;;0.88;0.88;;;;;;;-3.96;88.76;99871.50;5052546;28;20467;-81
2023/01/15 04:24:01;;;;;;;0.88;0.88;;;;;;;-3.91;88.93;99866.69;5051895;28;20404;-81
2023/01/15 04:26:27;;;;;;;0.70;0.70;;;;;;;-3.88;88.85;99857.69;5063174;28;20151;-81
2023/01/15 04:28:54;;;;;;;0.98;0.98;;;;;;;-3.92;89.05;99850.03;5027678;28;20048;-81
2023/01/15 04:31:22;;;;;;;0.70;0.70;;;;;;;-3.95;88.98;99860.84;5040431;28;20045;-81
2023/01/15 04:33:49;;;;;;;0.60;0.60;;;;;;;-3.95;88.84;99879.31;5061100;28;20055;-81
2023/01/15 04:36:16;;;;;;;0.70;0.70;;;;;;;-3.98;88.92;99874.28;5042600;28;20431;-80
2023/01/15 04:38:43;;;;;;;1.00;1.00;;;;;;;-3.97;89.19;99870.69;5040949;28;20135;-81
2023/01/15 04:44:08;;;;;;;0.90;0.90;;;;;;;-3.97;89.22;99875.13;5056007;28;20053;-81
2023/01/15 04:46:38;;;;;;;0.65;0.65;;;;;;;-3.97;89.29;99868.06;5070476;28;20056;-81
2023/01/15 04:49:07;;;;;;;0.80;0.80;;;;;;;-3.93;89.40;99844.88;5070475;28;20064;-81
2023/01/15 04:51:34;;;;;;;0.90;0.90;;;;;;;-3.99;89.49;99862.06;5070694;28;20056;-81
2023/01/15 04:54:03;;;;;;;0.80;0.80;;;;;;;-4.00;89.31;99857.75;5071520;28;20086;-81
2023/01/15 04:56:31;;;;;;;0.60;0.60;;;;;;;-3.97;89.57;99862.78;5070808;28;20067;-81
2023/01/15 04:59:00;;;;;;;0.82;0.82;;;;;;;-3.96;89.76;99861.78;5070521;28;20094;-80
2023/01/15 05:01:27;;;;;;;0.90;0.90;;;;;;;-3.95;89.74;99863.50;5044688;28;20478;-81
2023/01/15 05:03:57;;;;;;;0.80;0.80;;;;;;;-3.97;89.63;99865.41;5062310;28;20076;-81
2023/01/15 05:06:24;;;;;;;0.80;0.80;;;;;;;-3.99;89.86;99859.44;5056623;28;20143;-81
2023/01/15 05:08:52;;;;;;;0.85;0.85;;;;;;;-4.03;89.98;99868.56;5060275;28;20053;-81
2023/01/15 05:11:19;;;;;;;1.00;1.00;;;;;;;-4.04;90.53;99863.44;5060852;28;20076;-81
2023/01/15 05:13:46;;;;;;;0.80;0.80;;;;;;;-4.03;90.76;99855.38;5066114;28;20162;-82
2023/01/15 05:16:19;;;;;;;0.70;0.70;;;;;;;-4.04;90.97;99835.25;5061517;28;20044;-81
2023/01/15 05:18:46;;;;;;;0.80;0.80;;;;;;;-4.15;90.75;99840.63;5047198;28;20085;-81
2023/01/15 05:21:17;;;;;;;0.70;0.70;;;;;;;-4.05;91.27;99840.63;5058826;28;20103;-81
2023/01/15 05:23:46;;;;;;;0.80;0.80;;;;;;;-4.08;91.28;99841.75;5063004;28;20052;-83
2023/01/15 05:26:13;;;;;;;0.80;0.80;;;;;;;-4.06;91.34;99852.16;5063786;28;20078;-83
2023/01/15 05:28:41;;;;;;;0.70;0.70;;;;;;;-4.12;91.41;99845.63;5030758;28;20052;-82
2023/01/15 05:31:10;;;;;;;0.82;0.82;;;;;;;-4.14;91.26;99834.38;5053242;28;20049;-83
2023/01/15 05:33:38;;;;;;;0.60;0.60;;;;;;;-4.01;91.61;99852.63;5043505;28;20048;-82
2023/01/15 05:36:07;;;;;;;0.80;0.80;;;;;;;-4.04;91.21;99848.44;5046826;28;20613;-81
2023/01/15 05:38:35;;;;;;;0.70;0.70;;;;;;;-4.09;91.26;99839.25;5025979;28;20880;-81
2023/01/15 05:41:47;;;;;;;0.93;0.93;;;;;;;-4.11;91.13;99833.25;5056528;28;20057;-82
2023/01/15 05:43:50;;;;;;;1.00;1.00;;;;;;;-4.11;91.40;99842.00;5040954;28;20415;-81
2023/01/15 05:46:17;;;;;;;0.67;0.67;;;;;;;-4.03;91.23;99844.81;4703661;28;10000612;-83
2023/01/15 05:48:44;;;;;;;0.70;0.70;;;;;;;-4.01;91.35;99848.16;5057106;28;20372;-82
2023/01/15 05:51:13;;;;;;;0.80;0.80;;;;;;;-4.00;91.37;99849.84;5061134;28;20049;-83
2023/01/15 05:53:40;;;;;;;0.73;0.73;;;;;;;-3.96;91.27;99851.25;5048545;28;20053;-84
2023/01/15 05:56:07;;;;;;;0.60;0.60;;;;;;;-3.98;91.06;99853.19;5062458;28;20146;-83
2023/01/15 05:58:34;;;;;;;0.65;0.65;;;;;;;-4.00;90.99;99841.94;5033385;28;20431;-81
2023/01/15 06:01:09;;;;;;;0.70;0.70;;;;;;;-4.00;91.07;99841.94;5068681;28;20064;-83
2023/01/15 06:03:36;;;;;;;0.80;0.80;;;;;;;-4.06;90.88;99837.19;5071091;28;20053;-83
2023/01/15 06:06:04;;;;;;;0.82;0.82;;;;;;;-3.98;90.87;99828.59;5053013;28;20411;-83
2023/01/15 06:08:31;;;;;;;0.70;0.70;;;;;;;-4.09;90.63;99832.16;5053060;28;20053;-82
2023/01/15 06:10:58;;;;;;;0.80;0.80;;;;;;;-4.05;90.64;99845.91;5064705;28;20598;-82
2023/01/15 06:13:28;;;;;;;0.85;0.85;;;;;;;-4.06;90.60;99841.63;5053284;28;20057;-89
2023/01/15 06:15:55;;;;;;;0.70;0.70;;;;;;;-4.08;90.38;99836.47;5069456;28;20044;-85
2023/01/15 06:18:25;;;;;;;0.85;0.85;;;;;;;-3.97;90.61;99848.75;5068918;28;20051;-84
2023/01/15 06:20:52;;;;;;;0.60;0.60;;;;;;;-4.03;90.46;99813.19;5026967;28;20064;-84
2023/01/15 06:23:19;;;;;;;0.80;0.80;;;;;;;-3.94;90.15;99841.41;5065378;28;20072;-82
2023/01/15 06:25:46;;;;;;;0.80;0.80;;;;;;;-4.02;90.01;99814.88;5054839;28;20041;-84
2023/01/15 06:28:13;;;;;;;0.70;0.70;;;;;;;-4.00;89.95;99843.72;5064103;28;20051;-83
2023/01/15 06:30:40;;;;;;;0.80;0.80;;;;;;;-3.94;90.07;99844.03;5057034;28;20450;-82
2023/01/15 06:33:08;;;;;;;0.80;0.80;;;;;;;-3.93;89.79;99844.88;5055240;28;20052;-84
2023/01/15 06:35:35;;;;;;;0.80;0.80;;;;;;;-3.96;89.66;99851.25;5062186;28;20451;-82
2023/01/15 06:38:02;;;;;;;0.80;0.80;;;;;;;-3.86;89.73;99850.47;5062710;28;20052;-82
2023/01/15 06:40:29;;;;;;;0.85;0.85;;;;;;;-3.87;89.18;99854.06;5074147;28;20044;-81
2023/01/15 06:48:35;;;;;;;0.95;0.95;;;;;;;-3.88;89.07;99860.31;5023626;28;20133;-83
2023/01/15 06:51:02;;;;;;;0.90;0.90;;;;;;;-3.87;88.65;99862.84;5051873;28;20139;-84
2023/01/15 06:53:29;;;;;;;0.80;0.80;;;;;;;-3.80;88.86;99861.34;5034298;28;20053;-84
2023/01/15 06:55:56;;;;;;;0.70;0.70;;;;;;;-3.94;88.85;99857.22;5052370;28;20048;-83
2023/01/15 06:58:24;;;;;;;1.00;1.00;;;;;;;-3.84;88.65;99880.19;5053589;28;20060;-83
2023/01/15 07:00:54;;;;;;;0.90;0.90;;;;;;;-3.78;88.56;99874.38;5050337;28;20147;-84
2023/01/15 07:03:22;;;;;;;0.70;0.70;;;;;;;-3.75;88.85;99874.97;5051874;28;20055;-83
2023/01/15 07:05:49;;;;;;;0.60;0.60;;;;;;;-3.75;88.52;99861.78;5051939;28;20443;-84
2023/01/15 07:08:16;;;;;;;0.90;0.90;;;;;;;-3.77;88.55;99865.53;5050388;28;20163;-84
2023/01/15 07:10:43;;;;;;;0.90;0.90;;;;;;;-3.81;88.38;99864.09;5033984;28;20052;-84
2023/01/15 07:13:10;;;;;;;0.80;0.80;;;;;;;-3.84;88.54;99865.19;5051770;28;20046;-85
2023/01/15 07:15:38;;;;;;;0.75;0.75;;;;;;;-3.82;88.67;99860.63;5051685;28;20051;-83
2023/01/15 07:18:06;;;;;;;0.80;0.80;;;;;;;-3.84;88.32;99853.81;5067599;28;20140;-83
2023/01/15 07:20:33;;;;;;;0.80;0.80;;;;;;;-3.81;88.14;99854.38;5052957;28;20106;-83
2023/01/15 07:23:00;;;;;;;0.90;0.90;;;;;;;-3.77;88.09;99862.88;5051468;28;20059;-84
2023/01/15 07:25:27;;;;;;;1.00;1.00;;;;;;;-3.83;87.95;99842.28;5053588;28;20044;-85
2023/01/15 07:27:54;;;;;;;0.98;0.98;;;;;;;-3.77;88.03;99860.25;5052630;28;20041;-83
2023/01/15 07:30:21;;;;;;;0.70;0.70;;;;;;;-3.76;88.02;99859.25;5053132;28;20053;-85
2023/01/15 07:32:48;;;;;;;0.68;0.68;;;;;;;-3.74;88.08;99873.16;5053448;28;20053;-84
2023/01/15 07:35:15;;;;;;;0.90;0.90;;;;;;;-3.72;87.78;99879.16;5052512;28;20053;-82
2023/01/15 07:37:42;;;;;;;0.90;0.90;;;;;;;-3.68;87.74;99883.19;5052948;28;20107;-84
2023/01/15 07:40:10;;;;;;;0.70;0.70;;;;;;;-3.66;87.46;99872.50;5053291;28;20155;-83
2023/01/15 07:51:01;;;;;;;0.77;0.77;;;;;;;-3.62;87.09;99863.34;5051509;28;20079;-85
2023/01/15 07:53:28;;;;;;;0.93;0.93;;;;;;;-3.58;86.98;99864.75;5035331;28;20578;-85
2023/01/15 07:55:55;;;;;;;0.60;0.60;;;;;;;-3.57;86.65;99874.34;5047971;28;20057;-85
2023/01/15 07:58:23;;;;;;;0.90;0.90;;;;;;;-3.64;86.66;99857.38;5031674;28;20506;-84
2023/01/15 08:00:50;;;;;;;0.70;0.70;;;;;;;-3.66;87.01;99846.13;5014384;28;20554;-84
2023/01/15 08:03:17;;;;;;;0.90;0.90;;;;;;;-3.62;86.63;99866.84;5018070;28;20053;-84
2023/01/15 08:05:44;;;;;;;0.80;0.80;;;;;;;-3.59;86.47;99842.00;5051305;28;20131;-84
2023/01/15 08:08:15;;;;;;;1.00;1.00;;;;;;;-3.58;86.29;99854.19;5050407;28;20045;-84
2023/01/15 08:16:20;;;;;;;0.80;0.80;;;;;;;-3.42;86.04;99853.69;5034325;28;20049;-84
2023/01/15 08:18:47;;;;;;;0.80;0.80;;;;;;;-3.40;86.02;99844.69;5048131;28;20045;-85
2023/01/15 08:21:15;;;;;;;0.80;0.80;;;;;;;-3.51;85.80;99831.59;5047590;28;20569;-83
2023/01/15 08:23:44;;;;;;;0.90;0.90;;;;;;;-3.41;85.58;99847.47;5049327;28;20103;-84
2023/01/15 08:26:12;;;;;;;0.77;0.77;;;;;;;-3.35;85.46;99849.56;5064247;28;20052;-84
2023/01/15 08:28:39;;;;;;;0.80;0.80;;;;;;;-3.29;85.31;99843.75;5049491;28;20144;-84
2023/01/15 08:31:07;;;;;;;0.65;0.65;;;;;;;-3.36;85.09;99837.34;5049348;28;20055;-84
2023/01/15 08:33:34;;;;;;;0.80;0.80;;;;;;;-3.33;84.75;99831.78;5049440;28;20511;-84
2023/01/15 08:36:02;;;;;;;0.77;0.77;;;;;;;-3.20;84.76;99848.19;5032764;28;20053;-84
2023/01/15 08:38:29;;;;;;;1.00;1.00;;;;;;;-3.28;84.89;99832.22;5033169;28;20047;-83
2023/01/15 08:40:59;;;;;;;0.95;0.95;;;;;;;-3.14;84.57;99850.31;5051021;28;20057;-83
2023/01/15 08:43:26;;;;;;;0.70;0.70;;;;;;;-3.12;84.54;99832.50;5052063;28;20064;-83
2023/01/15 08:45:57;;;;;;;0.90;0.90;;;;;;;-3.13;84.37;99837.94;5049522;28;20057;-84
2023/01/15 08:48:26;;;;;;;0.77;0.77;;;;;;;-3.11;84.07;99836.84;5048947;28;20114;-84
2023/01/15 08:50:53;;;;;;;0.80;0.80;;;;;;;-3.10;84.19;99842.94;5050544;28;20080;-83
2023/01/15 08:53:20;;;;;;;0.88;0.88;;;;;;;-3.10;84.40;99842.94;5050082;28;20053;-84
2023/01/15 08:55:47;;;;;;;0.80;0.80;;;;;;;-3.16;84.04;99825.84;5048817;28;20519;-84
2023/01/15 08:58:15;;;;;;;0.60;0.60;;;;;;;-3.11;83.96;99828.91;5050527;28;20060;-84
2023/01/15 09:00:43;;;;;;;1.10;1.10;;;;;;;-3.07;83.92;99842.66;5056097;28;20057;-84
2023/01/15 09:03:10;;;;;;;1.00;1.00;;;;;;;-3.08;83.88;99831.28;5069957;28;20048;-84
2023/01/15 09:05:37;;;;;;;1.00;1.00;;;;;;;-3.15;83.82;99830.16;5070501;28;20037;-84
2023/01/15 09:08:05;;;;;;;0.82;0.82;;;;;;;-3.22;83.62;99810.53;5054234;28;20094;-84
2023/01/15 09:10:34;;;;;;;0.88;0.88;;;;;;;-3.19;83.87;99822.63;5052685;28;20045;-84
2023/01/15 09:13:02;;;;;;;0.80;0.80;;;;;;;-3.25;84.09;99812.63;5052006;28;20048;-84
2023/01/15 09:15:30;;;;;;;0.70;0.70;;;;;;;-3.17;84.04;99833.91;5070398;28;20048;-83
2023/01/15 09:17:58;;;;;;;0.80;0.80;;;;;;;-3.13;83.86;99832.66;5070405;28;20052;-83
2023/01/15 09:20:25;;;;;;;0.93;0.93;;;;;;;-3.13;83.97;99827.38;5069444;28;20049;-82
2023/01/15 09:22:52;;;;;;;0.90;0.90;;;;;;;-3.16;83.47;99825.84;5076142;28;20075;-84
2023/01/15 09:25:22;;;;;;;0.80;0.80;;;;;;;-3.14;83.54;99820.41;5069819;28;20080;-83
2023/01/15 09:27:49;;;;;;;0.85;0.85;;;;;;;-3.17;83.58;99821.53;5053282;28;20045;-83
2023/01/15 09:30:19;;;;;;;1.00;1.00;;;;;;;-3.16;83.69;99823.22;5036876;28;20052;-84
2023/01/15 09:32:47;;;;;;;1.00;1.00;;;;;;;-3.20;83.39;99805.97;5055946;28;20057;-84
2023/01/15 09:35:14;;;;;;;0.80;0.80;;;;;;;-3.17;83.40;99813.59;5039708;28;20057;-84
2023/01/15 09:37:41;;;;;;;0.90;0.90;;;;;;;-3.08;83.26;99826.00;5056109;28;20094;-84
2023/01/15 09:40:39;;;;;;;0.80;0.80;;;;;;;-3.09;83.37;99819.06;5056340;28;20049;-84
2023/01/15 09:43:34;;;;;;;0.88;0.88;;;;;;;-3.08;83.36;99822.53;5049837;28;20044;-83
2023/01/15 09:46:14;;;;;;;0.80;0.80;;;;;;;-3.12;82.86;99811.38;5052012;28;20584;-84
2023/01/15 09:48:47;;;;;;;0.73;0.73;;;;;;;-3.03;82.97;99833.50;5035934;28;20052;-83
2023/01/15 09:51:30;;;;;;;0.82;0.82;;;;;;;-3.10;83.22;99800.69;5060519;28;20537;-86
2023/01/15 09:54:06;;;;;;;0.73;0.73;;;;;;;-3.01;82.63;99806.94;5072544;28;20091;-84
2023/01/15 09:56:36;;;;;;;1.10;1.10;;;;;;;-3.12;82.80;99798.19;5032066;28;20076;-85
2023/01/15 09:59:13;;;;;;;0.90;0.90;;;;;;;-2.96;82.76;99805.59;5068188;28;20041;-85
2023/01/15 10:01:41;;;;;;;0.77;0.77;;;;;;;-2.83;82.22;99814.06;5060425;28;20566;-84
2023/01/15 10:04:14;;;;;;;0.77;0.77;;;;;;;-2.76;82.17;99802.94;5043777;28;20049;-85
2023/01/15 10:06:50;;;;;;;0.70;0.70;;;;;;;-2.87;81.85;99786.25;5069348;28;20056;-84
2023/01/15 10:09:38;;;;;;;0.80;0.80;;;;;;;-2.77;81.51;99812.66;5051162;28;20049;-88
2023/01/15 10:12:35;;;;;;;0.65;0.65;;;;;;;-2.71;81.51;99811.28;5019332;28;20064;-87
2023/01/15 10:15:23;;;;;;;0.80;0.80;;;;;;;-2.73;81.23;99798.22;5034055;28;20072;-90
2023/01/15 10:17:56;;;;;;;0.98;0.98;;;;;;;-2.87;81.21;99811.84;5034745;28;20095;-85
2023/01/15 10:20:59;;;;;;;0.63;0.63;;;;;;;-2.76;81.07;99824.91;5012410;28;20045;-84
2023/01/15 10:23:39;;;;;;;0.90;0.90;;;;;;;-2.84;81.29;99828.25;4956336;28;20050;-85
2023/01/15 10:26:18;;;;;;;0.80;0.80;;;;;;;-2.75;81.21;99817.81;4953496;28;20077;-87
2023/01/15 10:28:59;;;;;;;0.80;0.80;;;;;;;-2.79;81.17;99804.03;4953492;28;20505;-87
2023/01/15 10:31:35;;;;;;;0.80;0.80;;;;;;;-2.77;80.92;99810.03;4954573;28;20609;-86
2023/01/15 10:34:37;;;;;;;0.73;0.73;;;;;;;-2.87;80.89;99780.13;4971678;28;20057;-87
2023/01/15 10:37:11;;;;;;;0.80;0.80;;;;;;;-2.84;80.76;99803.63;4954245;29;20162;-87
2023/01/15 10:40:08;;;;;;;0.90;0.90;;;;;;;-2.84;81.02;99796.56;4961330;29;20142;-89
2023/01/15 10:43:09;;;;;;;0.80;0.80;;;;;;;-2.85;80.91;99788.75;4942159;28;20494;-89
2023/01/15 10:45:55;;;;;;;0.90;0.90;;;;;;;-2.75;80.57;99826.56;4933355;29;20086;-86
2023/01/15 10:48:31;;;;;;;0.90;0.90;;;;;;;-2.73;80.45;99795.56;4931967;29;20047;-86
2023/01/15 10:51:02;;;;;;;0.95;0.95;;;;;;;-2.75;80.49;99797.50;4949305;29;20062;-86
2023/01/15 10:53:59;;;;;;;0.70;0.70;;;;;;;-2.68;80.34;99798.63;4948567;29;20072;-87
2023/01/15 10:57:11;;;;;;;1.00;1.00;;;;;;;-2.67;80.41;99781.78;4934725;29;20051;-86
2023/01/15 10:59:46;;;;;;;0.80;0.80;;;;;;;-2.66;80.36;99788.75;4568422;29;10000622;-86
2023/01/15 11:02:36;;;;;;;0.90;0.90;;;;;;;-2.53;79.70;99769.09;4928307;29;20084;-87
2023/01/15 11:05:05;;;;;;;0.80;0.80;;;;;;;-2.71;79.88;99740.78;4920876;29;20103;-88
2023/01/15 11:07:37;;;;;;;0.85;0.85;;;;;;;-2.54;79.67;99781.50;4930912;29;20052;-84
2023/01/15 11:10:20;;;;;;;1.10;1.10;;;;;;;-2.47;79.50;99777.31;4915280;29;20048;-86
2023/01/15 11:21:24;;;;;;;0.85;0.85;;;;;;;-2.64;79.68;99736.56;4959801;28;20145;-85
2023/01/15 11:23:55;;;;;;;0.85;0.85;;;;;;;-2.58;79.61;99766.06;4961806;28;20085;-88
2023/01/15 11:26:26;;;;;;;0.90;0.90;;;;;;;-2.60;79.48;99749.53;4976112;28;20046;-87
2023/01/15 11:28:54;;;;;;;0.70;0.70;;;;;;;-2.68;79.22;99737.84;4953131;28;20054;-84
2023/01/15 11:31:21;;;;;;;0.70;0.70;;;;;;;-2.72;79.47;99748.84;5038206;28;20055;-87
2023/01/15 11:34:00;;;;;;;0.80;0.80;;;;;;;-2.71;79.03;99742.56;5029389;28;20053;-84
2023/01/15 11:36:28;;;;;;;1.00;1.00;;;;;;;-2.74;79.13;99743.69;5035792;28;21059;-85
2023/01/15 11:38:56;;;;;;;0.90;0.90;;;;;;;-2.77;79.17;99728.13;5038758;28;20075;-84
2023/01/15 11:53:03;;;;;;;1.00;1.00;;;;;;;-2.85;79.84;99736.75;5045095;28;20095;-85
2023/01/15 11:55:30;;;;;;;0.70;0.70;;;;;;;-2.86;79.71;99729.81;5011420;28;20053;-86
2023/01/15 11:57:57;;;;;;;1.10;1.10;;;;;;;-2.86;80.00;99734.22;5030648;28;21209;-86
2023/01/15 12:00:27;;;;;;;0.80;0.80;;;;;;;-2.87;80.04;99737.88;5046560;28;20049;-85
2023/01/15 12:02:59;;;;;;;0.93;0.93;;;;;;;-2.84;80.16;99734.94;5028765;28;20061;-86
2023/01/15 12:05:29;;;;;;;1.00;1.00;;;;;;;-2.90;80.21;99741.63;5028223;28;20049;-86
2023/01/15 12:07:57;;;;;;;0.70;0.70;;;;;;;-2.89;80.21;99723.97;5030801;28;20053;-86
2023/01/15 12:11:02;;;;;;;0.80;0.80;;;;;;;-2.92;80.05;99725.06;5030373;28;20102;-86
2023/01/15 12:13:45;;;;;;;0.90;0.90;;;;;;;-2.91;80.23;99723.25;5045451;28;20044;-85
2023/01/15 12:16:31;;;;;;;0.80;0.80;;;;;;;-2.86;80.11;99728.94;5034824;28;20053;-85
2023/01/15 12:19:21;;;;;;;0.82;0.82;;;;;;;-2.89;80.11;99740.63;5043383;28;20077;-85
2023/01/15 12:21:54;;;;;;;0.88;0.88;;;;;;;-2.93;80.11;99735.78;5026069;28;20162;-86
2023/01/15 12:24:27;;;;;;;0.98;0.98;;;;;;;-2.86;80.32;99721.03;5043360;28;20053;-85
2023/01/15 12:27:42;;;;;;;0.88;0.88;;;;;;;-2.84;80.28;99734.94;5043769;28;20167;-85
2023/01/15 12:30:27;;;;;;;0.93;0.93;;;;;;;-2.84;80.41;99740.22;5037555;28;20111;-88
2023/01/15 12:33:10;;;;;;;0.80;0.80;;;;;;;-2.89;80.43;99739.81;5049154;28;20057;-86
2023/01/15 12:35:41;;;;;;;0.80;0.80;;;;;;;-2.99;80.46;99728.41;5039353;28;20331;-88
2023/01/15 12:38:26;;;;;;;1.00;1.00;;;;;;;-2.94;80.68;99736.75;5052749;28;20072;-86
2023/01/15 12:40:55;;;;;;;;;;;;;;;-2.98;80.44;99733.56;5037094;28;20052;-87
2023/01/15 12:46:20;;;;;;;0.80;0.80;;;;;;;-3.03;80.41;99733.16;5033313;28;20045;-87
2023/01/15 12:48:53;;;;;;;1.00;1.00;;;;;;;-3.01;80.46;99736.50;5026891;28;20056;-86
2023/01/15 12:51:49;;;;;;;0.88;0.88;;;;;;;-3.11;80.42;99736.50;5046067;28;20134;-88